Time;durP1;ratioP1;P1;durP2;ratioP2;P2;SDS_P1;SDS_P2;PMS_P1;PMS_P2;Temp;Humidity;BMP_temperature;BMP_pressure;BME280_temperature;BME280_humidity;BME280_pressure;Samples;Min_cycle;Max_cycle;Signal;HPM_P1;HPM_P2
2022/01/12 00:01:14;;;;;;;0.00;0.00;;;;;;;-0.63;78.17;99562.06;5097322;28;20040;-78
2022/01/12 00:03:42;;;;;;;0.22;0.22;;;;;;;-0.62;77.52;99571.56;5089439;28;20032;-77
2022/01/12 00:06:07;;;;;;;0.00;0.00;;;;;;;-0.66;77.72;99565.88;5091052;28;20157;-76
2022/01/12 00:08:33;;;;;;;0.00;0.00;;;;;;;-0.78;77.85;99549.00;5089612;28;20124;-78
2022/01/12 00:11:00;;;;;;;0.00;0.00;;;;;;;-0.65;79.25;99570.97;5089763;28;20059;-77
2022/01/12 00:13:26;;;;;;;0.10;0.10;;;;;;;-0.65;78.53;99568.34;5091552;28;20395;-77
2022/01/12 00:15:52;;;;;;;0.00;0.00;;;;;;;-0.73;79.31;99567.63;5097933;28;20069;-78
2022/01/12 00:18:18;;;;;;;0.00;0.00;;;;;;;-0.70;77.96;99588.28;5108312;28;20027;-77
2022/01/12 00:20:43;;;;;;;0.00;0.00;;;;;;;-0.67;78.46;99593.97;5105990;28;20028;-76
2022/01/12 00:23:09;;;;;;;0.00;0.00;;;;;;;-0.65;77.15;99599.88;5090733;28;20040;-75
2022/01/12 00:25:56;;;;;;;0.00;0.00;;;;;;;-0.75;77.60;99590.69;5090770;28;20090;-77
2022/01/12 00:33:55;;;;;;;0.00;0.00;;;;;;;-0.68;76.87;99620.44;5093485;28;20042;-78
2022/01/12 00:36:21;;;;;;;0.00;0.00;;;;;;;-0.64;77.09;99613.81;5109693;28;20031;-80
2022/01/12 00:38:47;;;;;;;0.00;0.00;;;;;;;-0.62;77.95;99611.81;5090688;28;20028;-77
2022/01/12 00:41:16;;;;;;;0.20;0.20;;;;;;;-0.60;77.33;99616.88;5089533;28;20487;-77
2022/01/12 00:43:44;;;;;;;0.00;0.00;;;;;;;-0.59;77.08;99621.13;5089087;28;20400;-75
2022/01/12 00:46:09;;;;;;;1.08;1.08;;;;;;;-0.62;77.77;99617.06;5090466;28;20032;-76
2022/01/12 00:48:36;;;;;;;1.38;1.35;;;;;;;-0.68;78.70;99613.38;5110276;28;20038;-77
2022/01/12 00:51:03;;;;;;;1.55;1.10;;;;;;;-0.60;77.97;99624.75;5131353;27;20102;-77
2022/01/12 00:53:29;;;;;;;0.00;0.00;;;;;;;-0.60;77.96;99628.19;5129491;28;20055;-77
2022/01/12 00:55:55;;;;;;;0.00;0.00;;;;;;;-0.65;78.04;99610.38;5111950;28;20027;-79
2022/01/12 00:58:21;;;;;;;0.03;0.03;;;;;;;-0.61;78.04;99613.44;5089330;28;20031;-80
2022/01/12 01:00:46;;;;;;;0.00;0.00;;;;;;;-0.61;77.43;99617.88;5089078;28;20036;-78
2022/01/12 01:03:12;;;;;;;0.55;0.55;;;;;;;-0.66;76.69;99615.78;5089298;28;20032;-80
2022/01/12 01:05:38;;;;;;;0.00;0.00;;;;;;;-0.62;76.42;99621.50;5107163;28;20442;-77
2022/01/12 01:08:05;;;;;;;0.20;0.20;;;;;;;-0.66;75.55;99623.69;5109573;28;20035;-78
2022/01/12 01:10:47;;;;;;;1.65;1.55;;;;;;;-0.78;75.02;99610.25;5110696;28;20042;-78
2022/01/12 01:13:22;;;;;;;0.10;0.10;;;;;;;-0.78;74.95;99623.38;5109523;28;20036;-83
2022/01/12 01:26:27;;;;;;;0.00;0.00;;;;;;;-0.92;76.15;99605.88;5093903;28;20103;-73
2022/01/12 01:28:53;;;;;;;0.00;0.00;;;;;;;-0.95;76.70;99607.06;5093624;28;20155;-74
2022/01/12 01:31:20;;;;;;;0.00;0.00;;;;;;;-0.88;76.58;99617.59;5092447;28;20024;-75
2022/01/12 01:33:46;;;;;;;0.00;0.00;;;;;;;-0.98;77.23;99607.41;5093701;28;20089;-77
2022/01/12 01:36:12;;;;;;;0.08;0.08;;;;;;;-0.99;76.78;99622.38;5105517;28;20486;-76
2022/01/12 01:38:39;;;;;;;0.00;0.00;;;;;;;-0.98;76.13;99623.16;5112627;28;20032;-76
2022/01/12 01:41:05;;;;;;;0.00;0.00;;;;;;;-0.97;76.67;99625.59;5114162;28;20019;-76
2022/01/12 01:54:13;;;;;;;0.00;0.00;;;;;;;-0.94;75.80;99628.88;5097040;28;20039;-76
2022/01/12 01:56:39;;;;;;;0.00;0.00;;;;;;;-1.01;76.14;99632.22;5098558;28;20059;-76
2022/01/12 01:59:05;;;;;;;0.00;0.00;;;;;;;-1.02;75.68;99627.97;5112323;28;20119;-77
2022/01/12 02:01:30;;;;;;;0.22;0.22;;;;;;;-1.06;75.01;99628.53;5094456;28;20036;-78
2022/01/12 02:04:01;;;;;;;1.17;0.55;;;;;;;-1.09;75.18;99631.53;5092945;28;20111;-75
2022/01/12 02:06:27;;;;;;;0.65;0.65;;;;;;;-1.04;75.00;99630.00;5091588;28;20543;-75
2022/01/12 02:08:53;;;;;;;0.00;0.00;;;;;;;-1.12;75.94;99622.22;5091782;28;20029;-76
2022/01/12 02:11:27;;;;;;;0.73;0.73;;;;;;;-1.15;76.27;99635.69;5093126;28;20028;-76
2022/01/12 02:13:53;;;;;;;1.63;1.55;;;;;;;-0.95;76.15;99654.31;5111985;28;20027;-75
2022/01/12 02:16:25;;;;;;;0.00;0.00;;;;;;;-0.94;76.29;99657.75;5113384;28;20028;-76
2022/01/12 02:40:27;;;;;;;0.00;0.00;;;;;;;-0.98;73.99;99681.75;5111217;28;20415;-78
2022/01/12 02:51:15;;;;;;;0.00;0.00;;;;;;;-1.00;74.00;99694.25;5103371;28;20157;-79
2022/01/12 02:53:42;;;;;;;0.05;0.05;;;;;;;-1.12;73.65;99687.84;5111039;28;20043;-79
2022/01/12 02:56:19;;;;;;;0.63;0.63;;;;;;;-1.07;74.35;99700.44;5112642;28;20384;-77
2022/01/12 02:58:45;;;;;;;0.00;0.00;;;;;;;-1.04;74.21;99705.28;5110488;28;20031;-77
2022/01/12 03:01:43;;;;;;;0.00;0.00;;;;;;;-1.08;73.80;99707.47;5110811;28;20067;-78
2022/01/12 03:04:06;;;;;;;0.00;0.00;;;;;;;-1.06;73.67;99713.38;5111630;28;20028;-79
2022/01/12 03:06:37;;;;;;;0.00;0.00;;;;;;;-1.04;73.59;99713.16;5110829;28;20055;-79
2022/01/12 03:09:04;;;;;;;0.00;0.00;;;;;;;-1.16;73.63;99711.03;5097738;28;20058;-83
2022/01/12 03:11:31;;;;;;;0.00;0.00;;;;;;;-1.01;74.19;99718.88;5090667;28;20086;-77
2022/01/12 03:13:58;;;;;;;0.05;0.05;;;;;;;-1.01;74.11;99731.19;5091904;28;20032;-74
2022/01/12 03:16:25;;;;;;;0.60;0.60;;;;;;;-1.06;73.25;99715.16;5112164;28;20027;-74
2022/01/12 03:18:54;;;;;;;2.27;2.17;;;;;;;-1.10;73.63;99713.91;5110594;28;20028;-74
2022/01/12 03:21:23;;;;;;;0.20;0.20;;;;;;;-1.09;71.92;99736.53;5112197;28;20464;-75
2022/01/12 03:23:50;;;;;;;0.00;0.00;;;;;;;-1.10;73.16;99725.22;5111935;28;20217;-75
2022/01/12 03:26:16;;;;;;;0.00;0.00;;;;;;;-1.15;72.93;99722.31;5111861;28;20019;-74
2022/01/12 03:28:43;;;;;;;0.00;0.00;;;;;;;-1.22;73.03;99716.16;5098687;28;20020;-76
2022/01/12 04:09:17;;;;;;;0.10;0.10;;;;;;;-1.37;73.66;99800.94;5090932;28;20035;-77
2022/01/12 04:11:43;;;;;;;0.00;0.00;;;;;;;-1.53;72.82;99790.63;5091193;28;20534;-76
2022/01/12 04:14:09;;;;;;;0.00;0.00;;;;;;;-1.40;73.32;99796.06;5092937;28;20108;-75
2022/01/12 04:16:35;;;;;;;6.33;1.60;;;;;;;-1.40;72.92;99800.50;5111280;28;20032;-77
2022/01/12 04:19:01;;;;;;;0.00;0.00;;;;;;;-1.46;73.05;99791.53;5109945;28;20024;-76
2022/01/12 04:21:29;;;;;;;0.30;0.30;;;;;;;-1.50;73.33;99822.56;5111338;28;20097;-77
2022/01/12 04:23:56;;;;;;;0.00;0.00;;;;;;;-1.49;73.38;99816.34;5108627;28;20552;-72
2022/01/12 04:26:21;;;;;;;1.30;1.23;;;;;;;-1.46;73.59;99808.09;5111271;28;20024;-75
2022/01/12 04:28:47;;;;;;;1.17;1.10;;;;;;;-1.50;73.28;99814.69;5110394;28;20436;-75
2022/01/12 04:31:13;;;;;;;0.63;0.63;;;;;;;-1.53;73.96;99819.47;5089572;28;20035;-75
2022/01/12 04:33:40;;;;;;;0.00;0.00;;;;;;;-1.40;73.34;99826.72;5096703;28;20024;-75
2022/01/12 04:36:07;;;;;;;0.00;0.00;;;;;;;-1.47;73.13;99837.94;5109955;28;20100;-75
2022/01/12 04:38:34;;;;;;;0.00;0.00;;;;;;;-1.48;73.42;99833.72;5109858;28;20023;-77
2022/01/12 04:41:01;;;;;;;0.00;0.00;;;;;;;-1.61;72.78;99820.38;5105115;28;20028;-75
2022/01/12 04:43:27;;;;;;;0.10;0.10;;;;;;;-1.53;73.64;99838.66;5089588;28;20049;-75
2022/01/12 04:50:51;;;;;;;0.00;0.00;;;;;;;-1.62;72.79;99847.59;5110848;28;20549;-77
2022/01/12 04:53:19;;;;;;;4.63;1.45;;;;;;;-1.75;72.43;99842.13;5113129;28;20046;-73
2022/01/12 04:55:46;;;;;;;0.00;0.00;;;;;;;-1.68;72.51;99871.91;5107868;28;20032;-72
2022/01/12 04:58:11;;;;;;;2.40;2.30;;;;;;;-1.88;72.14;99838.28;5095135;28;20111;-75
2022/01/12 05:00:38;;;;;;;0.00;0.00;;;;;;;-1.80;72.44;99853.94;5098977;28;20106;-76
2022/01/12 05:13:48;;;;;;;0.00;0.00;;;;;;;-1.72;72.92;99891.59;5093814;28;20023;-81
2022/01/12 05:16:14;;;;;;;0.10;0.10;;;;;;;-1.69;73.51;99886.00;5097799;28;20452;-75
2022/01/12 05:18:42;;;;;;;0.00;0.00;;;;;;;-1.65;73.73;99892.53;5127291;27;20062;-73
2022/01/12 05:21:09;;;;;;;0.00;0.00;;;;;;;-1.64;74.00;99883.66;5133793;27;20030;-72
2022/01/12 05:23:35;;;;;;;1.15;1.10;;;;;;;-1.54;74.20;99897.34;5110247;27;20106;-79
2022/01/12 05:26:01;;;;;;;0.20;0.20;;;;;;;-1.61;74.56;99886.75;5127864;27;20031;-73
2022/01/12 05:28:28;;;;;;;0.00;0.00;;;;;;;-1.58;74.59;99890.03;5101979;28;20036;-73
2022/01/12 05:30:54;;;;;;;0.00;0.00;;;;;;;-1.62;74.77;99887.75;5094627;28;20028;-72
2022/01/12 05:33:24;;;;;;;0.00;0.00;;;;;;;-1.50;75.26;99905.69;5108514;28;20126;-72
2022/01/12 05:35:55;;;;;;;0.00;0.00;;;;;;;-1.69;75.46;99865.03;5113862;28;20031;-73
2022/01/12 05:38:22;;;;;;;0.00;0.00;;;;;;;-1.42;75.24;99910.06;5110699;27;20035;-72
2022/01/12 05:40:49;;;;;;;0.00;0.00;;;;;;;-1.35;75.80;99916.25;5134107;27;20083;-71
2022/01/12 05:43:20;;;;;;;1.60;1.55;;;;;;;-1.37;75.62;99919.03;5134576;27;20478;-72
2022/01/12 05:45:46;;;;;;;0.10;0.10;;;;;;;-1.49;75.93;99916.03;5134046;27;20069;-71
2022/01/12 05:50:41;;;;;;;0.00;0.00;;;;;;;-1.38;76.82;99930.53;5134183;27;20031;-72
2022/01/12 05:53:06;;;;;;;0.00;0.00;;;;;;;-1.30;76.49;99934.91;5134208;27;20081;-73
2022/01/12 05:55:32;;;;;;;0.08;0.08;;;;;;;-1.24;75.94;99939.44;5134398;27;20111;-72
2022/01/12 05:57:58;;;;;;;0.00;0.00;;;;;;;-1.15;75.29;99932.31;5132736;27;20072;-72
2022/01/12 06:00:26;;;;;;;0.52;0.52;;;;;;;-1.11;74.64;99938.84;5133021;27;20046;-72
2022/01/12 06:02:52;;;;;;;0.00;0.00;;;;;;;-1.10;74.48;99937.03;5133238;27;20130;-72
2022/01/12 06:05:19;;;;;;;0.00;0.00;;;;;;;-1.05;74.49;99943.41;5132668;27;20537;-72
2022/01/12 06:07:46;;;;;;;0.00;0.00;;;;;;;-0.92;74.79;99949.84;5132599;27;20107;-71
2022/01/12 06:10:12;;;;;;;0.00;0.00;;;;;;;-1.00;73.87;99948.94;5132685;27;20556;-72
2022/01/12 06:12:38;;;;;;;0.00;0.00;;;;;;;-0.95;72.64;99973.81;5133920;27;20023;-72
2022/01/12 06:15:04;;;;;;;0.10;0.10;;;;;;;-1.02;72.37;99964.03;5132372;27;20046;-72
2022/01/12 06:17:30;;;;;;;0.00;0.00;;;;;;;-1.11;72.46;99969.53;5133864;27;20019;-71
2022/01/12 06:19:55;;;;;;;0.10;0.10;;;;;;;-1.22;72.39;99970.75;5133610;27;20080;-72
2022/01/12 06:22:21;;;;;;;0.30;0.30;;;;;;;-1.20;72.92;99993.22;5133477;27;20087;-71
2022/01/12 06:24:46;;;;;;;0.00;0.00;;;;;;;-1.27;72.77;99984.41;5133091;27;20050;-72
2022/01/12 06:27:15;;;;;;;0.95;0.90;;;;;;;-1.31;72.70;99991.84;5133553;27;20027;-72
2022/01/12 06:32:07;;;;;;;0.00;0.00;;;;;;;-1.50;73.09;99979.97;5132736;27;20106;-72
2022/01/12 06:34:32;;;;;;;0.45;0.40;;;;;;;-1.40;73.29;100002.53;5132863;27;20289;-71
2022/01/12 06:36:58;;;;;;;0.00;0.00;;;;;;;-1.41;73.48;100004.34;5132673;27;20019;-71
2022/01/12 06:39:25;;;;;;;0.00;0.00;;;;;;;-1.40;73.44;100006.00;5132849;27;20476;-72
2022/01/12 06:41:52;;;;;;;0.00;0.00;;;;;;;-1.40;73.26;100021.72;5132534;27;20054;-72
2022/01/12 06:44:22;;;;;;;0.00;0.00;;;;;;;-1.41;73.59;100014.03;5132745;27;20023;-72
2022/01/12 06:46:50;;;;;;;0.00;0.00;;;;;;;-1.58;73.49;99994.97;5131075;27;20027;-71
2022/01/12 06:49:16;;;;;;;0.10;0.10;;;;;;;-1.42;73.50;100022.91;5132558;27;20027;-72
2022/01/12 06:51:43;;;;;;;0.00;0.00;;;;;;;-1.47;72.77;100020.78;5132085;27;20418;-72
2022/01/12 06:54:09;;;;;;;0.00;0.00;;;;;;;-1.37;73.45;100034.50;5132474;27;20038;-72
2022/01/12 06:56:35;;;;;;;0.00;0.00;;;;;;;-1.47;72.75;100023.41;5131124;27;20035;-72
2022/01/12 06:59:03;;;;;;;0.00;0.00;;;;;;;-1.39;72.85;100033.88;5132464;27;20030;-72
2022/01/12 07:01:28;;;;;;;0.00;0.00;;;;;;;-1.41;73.01;100032.41;5133132;27;20035;-72
2022/01/12 07:03:53;;;;;;;1.27;1.27;;;;;;;-1.40;72.65;100031.41;5132422;27;20027;-72
2022/01/12 07:06:19;;;;;;;0.10;0.10;;;;;;;-1.42;72.69;100033.41;5132936;27;20027;-72
2022/01/12 07:08:45;;;;;;;0.00;0.00;;;;;;;-1.37;73.09;100045.00;5132636;27;20023;-72
2022/01/12 07:11:10;;;;;;;0.00;0.00;;;;;;;-1.38;72.34;100048.63;5131528;27;20033;-71
2022/01/12 07:13:36;;;;;;;0.52;0.40;;;;;;;-1.52;71.65;100018.69;5130949;27;20057;-71
2022/01/12 07:16:01;;;;;;;0.00;0.00;;;;;;;-1.39;71.54;100054.03;5132223;27;20106;-71
2022/01/12 07:18:29;;;;;;;0.00;0.00;;;;;;;-1.44;71.43;100044.06;5132837;27;20079;-71
2022/01/12 07:20:58;;;;;;;0.00;0.00;;;;;;;-1.50;71.78;100045.56;5131167;27;20082;-72
2022/01/12 07:23:23;;;;;;;0.45;0.45;;;;;;;-1.44;71.51;100046.69;5132310;27;20447;-71
2022/01/12 07:25:49;;;;;;;0.00;0.00;;;;;;;-1.45;71.67;100051.09;5132269;27;20167;-72
2022/01/12 07:28:15;;;;;;;0.15;0.15;;;;;;;-1.46;71.61;100061.78;5132527;27;20474;-73
2022/01/12 07:30:40;;;;;;;0.27;0.27;;;;;;;-1.42;71.27;100072.75;5132776;27;20031;-71
2022/01/12 07:33:06;;;;;;;0.20;0.20;;;;;;;-1.36;71.88;100072.06;5132208;27;20087;-72
2022/01/12 07:35:31;;;;;;;0.20;0.20;;;;;;;-1.36;71.78;100077.31;5131123;27;20019;-71
2022/01/12 07:37:57;;;;;;;0.00;0.00;;;;;;;-1.67;71.59;100034.34;5132546;27;20547;-71
2022/01/12 07:40:22;;;;;;;3.10;1.30;;;;;;;-1.49;71.34;100062.13;5132083;27;20031;-72
2022/01/12 07:42:47;;;;;;;0.73;0.35;;;;;;;-1.39;70.95;100080.28;5131852;27;20027;-72
2022/01/12 07:45:13;;;;;;;0.00;0.00;;;;;;;-1.34;71.88;100077.97;5132257;27;20478;-72
2022/01/12 07:47:39;;;;;;;0.77;0.77;;;;;;;-1.43;71.51;100077.16;5132260;27;20098;-71
2022/01/12 07:50:07;;;;;;;0.20;0.20;;;;;;;-1.53;70.62;100077.38;5131999;27;20057;-71
2022/01/12 07:52:32;;;;;;;0.00;0.00;;;;;;;-1.42;71.49;100088.50;5131721;27;20514;-71
2022/01/12 07:54:58;;;;;;;0.10;0.10;;;;;;;-1.35;71.62;100107.81;5130554;27;20080;-72
2022/01/12 07:57:24;;;;;;;0.00;0.00;;;;;;;-1.33;71.19;100103.19;5132000;27;20023;-71
2022/01/12 07:59:49;;;;;;;0.10;0.10;;;;;;;-1.37;70.76;100100.09;5131857;27;20030;-72
2022/01/12 08:02:15;;;;;;;0.75;0.75;;;;;;;-1.36;70.83;100099.09;5132078;27;20072;-71
2022/01/12 08:04:41;;;;;;;2.92;2.00;;;;;;;-1.44;70.90;100112.28;5131967;27;20023;-72
2022/01/12 08:07:10;;;;;;;0.00;0.00;;;;;;;-1.43;71.27;100108.66;5131457;27;20458;-72
2022/01/12 08:09:35;;;;;;;0.00;0.00;;;;;;;-1.39;71.26;100119.63;5130703;28;20062;-72
2022/01/12 08:12:00;;;;;;;0.17;0.17;;;;;;;-1.38;70.68;100116.03;5130424;28;20122;-72
2022/01/12 08:14:26;;;;;;;0.40;0.40;;;;;;;-1.48;70.64;100103.94;5130564;28;20019;-72
2022/01/12 08:16:51;;;;;;;0.00;0.00;;;;;;;-1.47;71.29;100099.50;5131469;27;20030;-73
2022/01/12 08:19:19;;;;;;;0.20;0.20;;;;;;;-1.46;70.88;100111.63;5131639;27;20026;-72
2022/01/12 08:21:44;;;;;;;0.47;0.47;;;;;;;-1.36;70.55;100130.59;5131958;27;20028;-72
2022/01/12 08:24:12;;;;;;;1.67;0.45;;;;;;;-1.32;70.86;100131.91;5130143;28;20118;-72
2022/01/12 08:26:38;;;;;;;0.00;0.00;;;;;;;-1.33;70.58;100150.44;5134981;27;20478;-72
2022/01/12 08:29:03;;;;;;;0.00;0.00;;;;;;;-1.34;71.14;100126.00;5135817;27;20030;-73
2022/01/12 08:31:29;;;;;;;0.05;0.05;;;;;;;-1.30;71.04;100132.53;5135703;27;20178;-72
2022/01/12 08:33:54;;;;;;;0.00;0.00;;;;;;;-1.26;70.75;100132.22;5135632;27;20034;-72
2022/01/12 08:36:20;;;;;;;0.00;0.00;;;;;;;-1.17;70.57;100120.69;5135648;27;20038;-71
2022/01/12 08:38:45;;;;;;;0.83;0.83;;;;;;;-1.03;70.80;100134.88;5134524;27;20127;-72
2022/01/12 08:41:11;;;;;;;1.77;1.67;;;;;;;-0.92;70.69;100131.84;5135890;27;20115;-72
2022/01/12 08:43:36;;;;;;;0.00;0.00;;;;;;;-0.97;70.72;100113.97;5135757;27;20031;-72
2022/01/12 08:46:02;;;;;;;0.00;0.00;;;;;;;-0.81;69.67;100123.59;5135586;27;20509;-72
2022/01/12 08:48:27;;;;;;;0.10;0.10;;;;;;;-0.74;69.42;100141.28;5134424;27;20469;-72
2022/01/12 08:50:53;;;;;;;0.00;0.00;;;;;;;-0.78;68.64;100129.47;5135075;27;20034;-72
2022/01/12 08:53:18;;;;;;;0.10;0.10;;;;;;;-0.54;69.14;100147.69;5135453;27;20051;-71
2022/01/12 08:55:43;;;;;;;0.30;0.30;;;;;;;-0.52;68.79;100131.75;5135627;27;20024;-73
2022/01/12 08:58:09;;;;;;;0.00;0.00;;;;;;;-0.43;69.47;100153.53;5134950;27;20543;-72
2022/01/12 09:00:34;;;;;;;0.75;0.75;;;;;;;-0.44;69.52;100128.22;5134151;27;20019;-72
2022/01/12 09:03:01;;;;;;;0.95;0.95;;;;;;;-0.31;68.55;100141.59;5135425;27;20035;-72
2022/01/12 09:05:28;;;;;;;0.20;0.20;;;;;;;-0.34;68.20;100137.50;5134039;27;20091;-72
2022/01/12 09:07:55;;;;;;;3.03;2.92;;;;;;;-0.32;67.56;100134.69;5134770;27;20456;-73
2022/01/12 09:10:20;;;;;;;3.60;3.30;;;;;;;-0.35;67.73;100119.28;5135502;27;20553;-71
2022/01/12 09:12:46;;;;;;;0.43;0.43;;;;;;;-0.17;69.56;100117.16;5135121;27;20118;-73
2022/01/12 09:15:13;;;;;;;0.00;0.00;;;;;;;-0.04;68.52;100129.69;5134953;27;20061;-72
2022/01/12 09:17:38;;;;;;;0.22;0.22;;;;;;;0.02;68.01;100116.81;5135156;27;20031;-72
2022/01/12 09:20:06;;;;;;;0.00;0.00;;;;;;;0.11;67.31;100124.44;5133511;27;20023;-73
2022/01/12 09:22:32;;;;;;;0.00;0.00;;;;;;;0.13;67.25;100129.50;5135351;27;20079;-73
2022/01/12 09:24:57;;;;;;;2.50;0.40;;;;;;;0.19;68.47;100112.22;5134420;27;20458;-72
2022/01/12 09:27:22;;;;;;;0.00;0.00;;;;;;;0.35;67.77;100116.47;5134894;27;20031;-72
2022/01/12 09:29:48;;;;;;;1.17;1.17;;;;;;;0.29;65.91;100133.78;5133507;27;20023;-72
2022/01/12 09:32:14;;;;;;;0.10;0.10;;;;;;;0.21;65.17;100112.81;5134854;27;20057;-72
2022/01/12 09:34:39;;;;;;;0.10;0.10;;;;;;;0.28;65.34;100119.81;5134626;27;20512;-72
2022/01/12 09:37:05;;;;;;;0.00;0.00;;;;;;;0.21;66.00;100125.97;5132050;27;20179;-73
2022/01/12 09:39:32;;;;;;;2.05;1.13;;;;;;;0.22;66.01;100128.44;5134627;27;20058;-72
2022/01/12 09:41:59;;;;;;;0.00;0.00;;;;;;;0.23;65.35;100139.78;5134499;27;20117;-72
2022/01/12 09:44:43;;;;;;;2.92;1.85;;;;;;;0.13;65.67;100098.75;5134595;27;20161;-72
2022/01/12 09:47:08;;;;;;;0.30;0.30;;;;;;;0.15;65.32;100107.28;5134320;27;20478;-72
2022/01/12 09:49:34;;;;;;;0.00;0.00;;;;;;;0.17;66.50;100117.63;5133248;27;20087;-72
2022/01/12 09:52:00;;;;;;;0.55;0.55;;;;;;;0.14;66.59;100110.09;5133735;27;20047;-72
2022/01/12 09:54:27;;;;;;;0.47;0.47;;;;;;;0.27;66.82;100109.47;5134388;27;20110;-72
2022/01/12 09:56:53;;;;;;;0.52;0.52;;;;;;;0.17;64.71;100114.19;5133801;27;20026;-73
2022/01/12 09:59:21;;;;;;;0.10;0.10;;;;;;;0.18;64.49;100116.63;5113340;27;20036;-72
2022/01/12 10:01:48;;;;;;;0.10;0.10;;;;;;;0.05;64.46;100083.09;5112296;28;20092;-72
2022/01/12 10:04:22;;;;;;;0.00;0.00;;;;;;;0.06;63.59;100107.56;5113395;28;20030;-72
2022/01/12 10:06:50;;;;;;;0.47;0.47;;;;;;;0.10;63.62;100104.38;5112406;28;20510;-72
2022/01/12 10:09:17;;;;;;;0.05;0.05;;;;;;;0.06;62.43;100066.31;5113053;28;20081;-72
2022/01/12 10:12:05;;;;;;;0.03;0.03;;;;;;;0.07;59.76;100091.59;5113464;28;20032;-72
2022/01/12 10:14:39;;;;;;;1.17;0.93;;;;;;;0.11;60.50;100085.00;5113399;28;20028;-72
2022/01/12 10:17:05;;;;;;;0.00;0.00;;;;;;;0.19;61.49;100101.69;5113150;28;20118;-72
2022/01/12 10:19:33;;;;;;;0.10;0.10;;;;;;;0.22;60.61;100112.66;5112069;28;20390;-73
2022/01/12 10:22:01;;;;;;;0.10;0.10;;;;;;;0.40;61.62;100091.22;5112807;28;20032;-72
2022/01/12 10:24:27;;;;;;;0.00;0.00;;;;;;;0.34;59.76;100088.50;5113011;28;20032;-73
2022/01/12 10:26:54;;;;;;;0.00;0.00;;;;;;;0.25;59.34;100112.28;5094793;28;20499;-72
2022/01/12 10:29:28;;;;;;;0.82;0.82;;;;;;;0.22;59.85;100091.63;5091440;28;20028;-74
2022/01/12 10:31:59;;;;;;;0.28;0.28;;;;;;;0.08;59.07;100095.06;5091199;28;20026;-73
2022/01/12 10:34:43;;;;;;;0.00;0.00;;;;;;;0.04;58.52;100096.41;5091184;28;20024;-73
2022/01/12 10:37:11;;;;;;;0.75;0.75;;;;;;;-0.04;58.04;100111.28;5092108;28;20107;-73
2022/01/12 10:39:43;;;;;;;0.00;0.00;;;;;;;0.05;58.10;100098.03;5091278;28;20023;-73
2022/01/12 10:42:11;;;;;;;0.10;0.10;;;;;;;-0.02;59.56;100090.06;5090962;28;20028;-72
2022/01/12 10:44:42;;;;;;;0.20;0.20;;;;;;;-0.03;59.06;100120.78;5092586;28;20058;-72
2022/01/12 10:47:08;;;;;;;0.00;0.00;;;;;;;-0.11;58.47;100070.09;5091960;28;20468;-73
2022/01/12 10:49:36;;;;;;;0.30;0.30;;;;;;;-0.21;57.52;100086.13;5092368;28;20088;-73
2022/01/12 10:52:03;;;;;;;0.00;0.00;;;;;;;-0.25;57.79;100088.31;5092031;28;20032;-73
2022/01/12 10:54:29;;;;;;;0.00;0.00;;;;;;;-0.14;58.89;100066.00;5091017;28;20028;-72
2022/01/12 10:56:54;;;;;;;0.00;0.00;;;;;;;-0.38;58.96;100059.19;5090950;28;20327;-73
2022/01/12 10:59:21;;;;;;;0.00;0.00;;;;;;;-0.20;59.20;100082.50;5092123;28;20024;-74
2022/01/12 11:01:47;;;;;;;1.17;1.17;;;;;;;-0.29;58.01;100081.78;5092176;28;20024;-71
2022/01/12 11:04:13;;;;;;;0.00;0.00;;;;;;;-0.27;57.73;100092.94;5091864;28;20106;-72
2022/01/12 11:06:39;;;;;;;1.45;0.80;;;;;;;-0.16;59.35;100091.66;5092087;28;20040;-72
2022/01/12 11:09:05;;;;;;;1.17;1.08;;;;;;;-0.17;57.90;100109.25;5092053;28;20062;-73
2022/01/12 11:11:30;;;;;;;0.00;0.00;;;;;;;-0.16;57.69;100078.53;5090669;28;20051;-71
2022/01/12 11:13:57;;;;;;;0.00;0.00;;;;;;;-0.13;58.90;100072.09;5091357;28;20024;-73
2022/01/12 11:16:24;;;;;;;0.00;0.00;;;;;;;-0.10;60.01;100090.94;5090361;28;20035;-74
2022/01/12 11:18:52;;;;;;;0.00;0.00;;;;;;;-0.09;58.71;100094.41;5092223;28;20043;-74
2022/01/12 11:21:20;;;;;;;0.00;0.00;;;;;;;-0.18;58.68;100086.59;5091522;28;20383;-73
2022/01/12 11:23:46;;;;;;;0.85;0.85;;;;;;;-0.27;60.28;100050.88;5098809;28;20478;-72
2022/01/12 11:26:18;;;;;;;0.00;0.00;;;;;;;-0.04;57.73;100119.19;5110197;28;20183;-72
2022/01/12 11:28:45;;;;;;;0.00;0.00;;;;;;;-0.10;58.42;100085.69;5112006;28;20020;-73
2022/01/12 11:31:12;;;;;;;0.00;0.00;;;;;;;-0.04;57.45;100089.41;5111809;28;20062;-72
2022/01/12 11:33:40;;;;;;;1.75;1.40;;;;;;;-0.07;58.36;100080.06;5111916;28;20474;-73
2022/01/12 11:36:14;;;;;;;0.00;0.00;;;;;;;0.05;57.70;100082.25;5111795;28;20123;-73
2022/01/12 11:38:40;;;;;;;0.20;0.20;;;;;;;0.13;58.74;100085.59;5111875;28;20073;-73
2022/01/12 11:41:14;;;;;;;0.08;0.08;;;;;;;0.23;58.24;100111.66;5111606;28;20168;-73
2022/01/12 11:43:50;;;;;;;0.10;0.10;;;;;;;0.10;55.27;100053.63;5112086;28;20040;-73
2022/01/12 11:46:22;;;;;;;0.05;0.05;;;;;;;0.08;56.22;100074.81;5111494;28;20414;-72
2022/01/12 11:48:58;;;;;;;1.55;1.45;;;;;;;0.14;56.52;100100.41;5111790;28;20015;-72
2022/01/12 11:51:36;;;;;;;2.00;1.85;;;;;;;0.21;56.79;100099.66;5110289;28;20139;-73
2022/01/12 11:54:09;;;;;;;0.93;0.93;;;;;;;0.08;56.19;100097.69;5110187;28;20031;-72
2022/01/12 11:56:36;;;;;;;0.00;0.00;;;;;;;0.15;56.42;100080.97;5111628;28;20035;-72
2022/01/12 11:59:01;;;;;;;0.00;0.00;;;;;;;0.20;56.14;100098.06;5111260;28;20055;-73
2022/01/12 12:01:44;;;;;;;0.00;0.00;;;;;;;0.28;57.61;100096.16;5111193;28;20478;-73
2022/01/12 12:04:21;;;;;;;0.00;0.00;;;;;;;0.15;58.29;100057.31;5111249;28;20505;-73
2022/01/12 12:06:47;;;;;;;0.00;0.00;;;;;;;0.32;55.73;100107.13;5111558;28;20068;-72
2022/01/12 12:09:18;;;;;;;0.63;0.63;;;;;;;0.22;55.29;100096.88;5111044;28;20020;-73
2022/01/12 12:11:51;;;;;;;1.60;0.70;;;;;;;0.29;55.62;100094.31;5111409;28;20035;-72
2022/01/12 12:14:18;;;;;;;0.00;0.00;;;;;;;0.32;56.29;100105.28;5111087;28;20031;-73
2022/01/12 12:16:43;;;;;;;0.10;0.10;;;;;;;0.27;57.24;100088.41;5111155;28;20464;-73
2022/01/12 12:19:09;;;;;;;0.00;0.00;;;;;;;0.20;53.89;100125.16;5110894;28;20062;-73
2022/01/12 12:21:35;;;;;;;0.10;0.10;;;;;;;0.07;53.97;100090.78;5111099;28;20076;-73
2022/01/12 12:24:13;;;;;;;1.13;1.10;;;;;;;0.22;54.71;100110.03;5110726;28;20063;-73
2022/01/12 12:26:52;;;;;;;0.00;0.00;;;;;;;0.24;56.06;100113.28;5110785;28;20076;-73
2022/01/12 12:29:25;;;;;;;2.55;1.95;;;;;;;0.24;56.05;100109.84;5110408;28;20039;-72
2022/01/12 12:31:52;;;;;;;0.00;0.00;;;;;;;0.19;56.04;100114.84;5110572;28;20023;-72
2022/01/12 12:34:22;;;;;;;0.00;0.00;;;;;;;0.18;55.52;100129.78;5108842;28;20020;-72
2022/01/12 12:37:04;;;;;;;0.00;0.00;;;;;;;0.02;53.94;100128.13;5109260;28;20032;-72
2022/01/12 12:39:35;;;;;;;0.43;0.43;;;;;;;0.03;54.54;100129.78;5111256;28;20031;-72
2022/01/12 12:42:03;;;;;;;0.93;0.93;;;;;;;0.07;54.34;100127.59;5110085;28;20035;-73
2022/01/12 12:44:33;;;;;;;0.10;0.10;;;;;;;0.01;55.37;100121.25;5110517;28;20114;-72
2022/01/12 12:47:26;;;;;;;0.00;0.00;;;;;;;-0.02;53.82;100143.47;5109251;28;20032;-72
2022/01/12 12:49:56;;;;;;;0.00;0.00;;;;;;;-0.05;54.07;100121.97;5108123;28;20514;-73
2022/01/12 12:52:23;;;;;;;0.00;0.00;;;;;;;-0.02;55.15;100121.63;5110042;28;20379;-73
2022/01/12 12:54:49;;;;;;;0.55;0.43;;;;;;;-0.09;55.44;100131.22;5110337;28;20020;-73
2022/01/12 12:57:20;;;;;;;0.30;0.30;;;;;;;-0.03;55.28;100135.75;5109805;28;20038;-73
2022/01/12 12:59:47;;;;;;;0.52;0.47;;;;;;;-0.11;54.21;100110.38;5110397;28;20072;-73
2022/01/12 13:02:13;;;;;;;2.42;2.30;;;;;;;0.06;55.01;100157.53;5110080;28;20052;-73
2022/01/12 13:04:39;;;;;;;0.05;0.05;;;;;;;-0.01;52.70;100154.81;5100742;28;20111;-73
2022/01/12 13:07:19;;;;;;;0.00;0.00;;;;;;;0.01;53.50;100141.47;5089133;28;20039;-73
2022/01/12 13:09:45;;;;;;;0.00;0.00;;;;;;;-0.04;54.10;100152.53;5090615;28;20031;-73
2022/01/12 13:12:12;;;;;;;0.00;0.00;;;;;;;-0.10;53.40;100150.63;5090733;28;20026;-72
2022/01/12 13:14:46;;;;;;;0.00;0.00;;;;;;;-0.12;53.29;100155.22;5094224;28;20105;-72
2022/01/12 13:17:12;;;;;;;0.00;0.00;;;;;;;-0.14;52.72;100173.00;5094120;28;20028;-73
2022/01/12 13:22:26;;;;;;;0.00;0.00;;;;;;;0.07;55.06;100173.13;5061947;28;20089;-75
2022/01/12 13:24:51;;;;;;;2.30;1.75;;;;;;;0.08;54.59;100160.81;5094160;28;20498;-73
2022/01/12 13:27:17;;;;;;;0.10;0.10;;;;;;;0.06;55.33;100124.19;5093835;28;20039;-73
2022/01/12 13:29:49;;;;;;;0.00;0.00;;;;;;;0.07;54.33;100169.69;5093870;28;20082;-72
2022/01/12 13:32:15;;;;;;;0.00;0.00;;;;;;;-0.05;54.16;100158.78;5093794;28;20035;-72